sensor_id;sensor_type;location;lat;lon;timestamp;pressure;altitude;pressure_sealevel;temperature;humidity
21817;BME280;13247;47.504;7.382;2023-03-20T00:00:52;97638.31;;;7.71;100.00
21817;BME280;13247;47.504;7.382;2023-03-20T00:03:37;97637.38;;;7.77;100.00
21817;BME280;13247;47.504;7.382;2023-03-20T00:06:24;97636.06;;;7.49;100.00
21817;BME280;13247;47.504;7.382;2023-03-20T00:09:08;97638.97;;;7.25;100.00
21817;BME280;13247;47.504;7.382;2023-03-20T00:11:55;97647.53;;;7.36;100.00
21817;BME280;13247;47.504;7.382;2023-03-20T00:14:40;97653.97;;;7.10;100.00
21817;BME280;13247;47.504;7.382;2023-03-20T00:17:25;97655.25;;;6.75;100.00
21817;BME280;13247;47.504;7.382;2023-03-20T00:20:16;97655.97;;;6.89;100.00
21817;BME280;13247;47.504;7.382;2023-03-20T00:23:01;97665.41;;;6.97;100.00
21817;BME280;13247;47.504;7.382;2023-03-20T00:25:47;97651.88;;;7.37;100.00
21817;BME280;13247;47.504;7.382;2023-03-20T00:28:39;97650.47;;;7.11;100.00
21817;BME280;13247;47.504;7.382;2023-03-20T00:31:25;97650.75;;;7.54;100.00
21817;BME280;13247;47.504;7.382;2023-03-20T00:34:14;97649.84;;;7.57;100.00
21817;BME280;13247;47.504;7.382;2023-03-20T00:36:59;97651.59;;;7.55;100.00
21817;BME280;13247;47.504;7.382;2023-03-20T00:39:43;97653.78;;;7.24;100.00
21817;BME280;13247;47.504;7.382;2023-03-20T00:42:29;97650.09;;;7.40;100.00
21817;BME280;13247;47.504;7.382;2023-03-20T00:45:17;97650.91;;;7.44;100.00
21817;BME280;13247;47.504;7.382;2023-03-20T00:48:02;97641.38;;;7.40;100.00
21817;BME280;13247;47.504;7.382;2023-03-20T00:50:47;97648.97;;;6.94;100.00
21817;BME280;13247;47.504;7.382;2023-03-20T00:53:33;97657.13;;;6.62;100.00
21817;BME280;13247;47.504;7.382;2023-03-20T00:56:29;97659.44;;;6.89;100.00
21817;BME280;13247;47.504;7.382;2023-03-20T00:59:19;97670.81;;;5.93;100.00
21817;BME280;13247;47.504;7.382;2023-03-20T01:02:05;97659.09;;;6.44;100.00
21817;BME280;13247;47.504;7.382;2023-03-20T01:04:50;97669.44;;;6.50;100.00
21817;BME280;13247;47.504;7.382;2023-03-20T01:07:36;97654.22;;;6.89;100.00
21817;BME280;13247;47.504;7.382;2023-03-20T01:10:20;97655.72;;;7.08;100.00
21817;BME280;13247;47.504;7.382;2023-03-20T01:13:23;97649.00;;;6.89;100.00
21817;BME280;13247;47.504;7.382;2023-03-20T01:16:27;97660.50;;;6.73;100.00
21817;BME280;13247;47.504;7.382;2023-03-20T01:19:12;97659.38;;;6.94;100.00
21817;BME280;13247;47.504;7.382;2023-03-20T01:21:57;97658.66;;;6.81;100.00
21817;BME280;13247;47.504;7.382;2023-03-20T01:24:42;97660.34;;;6.85;100.00
21817;BME280;13247;47.504;7.382;2023-03-20T01:27:27;97655.81;;;6.99;100.00
21817;BME280;13247;47.504;7.382;2023-03-20T01:30:29;97669.84;;;6.91;100.00
21817;BME280;13247;47.504;7.382;2023-03-20T01:33:20;97671.66;;;6.83;100.00
21817;BME280;13247;47.504;7.382;2023-03-20T01:36:05;97662.97;;;6.85;100.00
21817;BME280;13247;47.504;7.382;2023-03-20T01:38:57;97669.78;;;6.95;100.00
21817;BME280;13247;47.504;7.382;2023-03-20T01:41:42;97670.84;;;6.79;100.00
21817;BME280;13247;47.504;7.382;2023-03-20T01:44:31;97675.72;;;6.26;100.00
21817;BME280;13247;47.504;7.382;2023-03-20T01:47:18;97675.84;;;6.14;100.00
21817;BME280;13247;47.504;7.382;2023-03-20T01:50:26;97682.88;;;6.03;100.00
21817;BME280;13247;47.504;7.382;2023-03-20T01:53:24;97687.16;;;6.08;100.00
21817;BME280;13247;47.504;7.382;2023-03-20T01:56:12;97683.72;;;6.05;100.00
21817;BME280;13247;47.504;7.382;2023-03-20T01:59:04;97685.31;;;6.22;100.00
21817;BME280;13247;47.504;7.382;2023-03-20T02:01:50;97684.25;;;6.46;100.00
21817;BME280;13247;47.504;7.382;2023-03-20T02:04:38;97688.63;;;6.38;100.00
21817;BME280;13247;47.504;7.382;2023-03-20T02:07:25;97683.34;;;6.47;100.00
21817;BME280;13247;47.504;7.382;2023-03-20T02:10:13;97684.88;;;6.68;100.00
21817;BME280;13247;47.504;7.382;2023-03-20T02:13:01;97689.09;;;6.79;100.00
21817;BME280;13247;47.504;7.382;2023-03-20T02:18:44;97685.22;;;7.12;100.00
21817;BME280;13247;47.504;7.382;2023-03-20T02:33:57;97697.41;;;7.11;100.00
21817;BME280;13247;47.504;7.382;2023-03-20T02:37:03;97705.31;;;7.04;100.00
21817;BME280;13247;47.504;7.382;2023-03-20T02:52:38;97702.53;;;7.19;100.00
21817;BME280;13247;47.504;7.382;2023-03-20T02:55:56;97711.16;;;7.24;100.00
21817;BME280;13247;47.504;7.382;2023-03-20T03:02:08;97711.50;;;7.64;100.00
21817;BME280;13247;47.504;7.382;2023-03-20T03:05:02;97710.81;;;7.50;100.00
21817;BME280;13247;47.504;7.382;2023-03-20T03:07:49;97719.59;;;7.44;100.00
21817;BME280;13247;47.504;7.382;2023-03-20T03:10:44;97716.97;;;7.47;100.00
21817;BME280;13247;47.504;7.382;2023-03-20T03:13:37;97720.34;;;7.52;100.00
21817;BME280;13247;47.504;7.382;2023-03-20T03:16:29;97714.50;;;7.37;100.00
21817;BME280;13247;47.504;7.382;2023-03-20T03:19:20;97724.94;;;7.34;100.00
21817;BME280;13247;47.504;7.382;2023-03-20T03:22:06;97728.53;;;7.25;100.00
21817;BME280;13247;47.504;7.382;2023-03-20T03:24:52;97730.41;;;7.14;100.00
21817;BME280;13247;47.504;7.382;2023-03-20T03:27:41;97727.88;;;7.08;100.00
21817;BME280;13247;47.504;7.382;2023-03-20T03:30:29;97733.03;;;7.12;100.00
21817;BME280;13247;47.504;7.382;2023-03-20T03:36:31;97740.91;;;7.08;100.00
21817;BME280;13247;47.504;7.382;2023-03-20T03:45:23;97740.28;;;7.59;100.00
21817;BME280;13247;47.504;7.382;2023-03-20T03:48:18;97734.88;;;7.73;100.00
21817;BME280;13247;47.504;7.382;2023-03-20T03:51:12;97733.69;;;7.95;100.00
21817;BME280;13247;47.504;7.382;2023-03-20T03:57:05;97743.25;;;7.96;100.00
21817;BME280;13247;47.504;7.382;2023-03-20T03:59:52;97750.31;;;7.88;100.00
21817;BME280;13247;47.504;7.382;2023-03-20T04:02:40;97750.31;;;7.88;100.00
21817;BME280;13247;47.504;7.382;2023-03-20T04:05:29;97746.59;;;8.04;100.00
21817;BME280;13247;47.504;7.382;2023-03-20T04:08:15;97746.59;;;8.04;100.00
21817;BME280;13247;47.504;7.382;2023-03-20T04:11:00;97741.19;;;8.16;100.00
21817;BME280;13247;47.504;7.382;2023-03-20T04:13:47;97729.56;;;8.37;100.00
21817;BME280;13247;47.504;7.382;2023-03-20T04:16:33;97737.25;;;7.88;100.00
21817;BME280;13247;47.504;7.382;2023-03-20T04:19:17;97737.72;;;8.17;100.00
21817;BME280;13247;47.504;7.382;2023-03-20T04:22:02;97731.53;;;8.21;100.00
21817;BME280;13247;47.504;7.382;2023-03-20T04:24:48;97731.94;;;7.96;100.00
21817;BME280;13247;47.504;7.382;2023-03-20T04:27:33;97725.66;;;8.09;100.00
21817;BME280;13247;47.504;7.382;2023-03-20T04:30:18;97725.47;;;8.19;100.00
21817;BME280;13247;47.504;7.382;2023-03-20T04:33:03;97728.13;;;8.16;100.00
21817;BME280;13247;47.504;7.382;2023-03-20T04:35:47;97723.22;;;8.51;100.00
21817;BME280;13247;47.504;7.382;2023-03-20T04:38:32;97715.41;;;8.50;100.00
21817;BME280;13247;47.504;7.382;2023-03-20T04:41:17;97725.09;;;8.43;100.00
21817;BME280;13247;47.504;7.382;2023-03-20T04:44:04;97729.47;;;8.43;100.00
21817;BME280;13247;47.504;7.382;2023-03-20T04:46:49;97732.50;;;8.69;100.00
21817;BME280;13247;47.504;7.382;2023-03-20T04:49:33;97725.72;;;8.59;100.00
21817;BME280;13247;47.504;7.382;2023-03-20T04:52:18;97732.84;;;8.49;100.00
21817;BME280;13247;47.504;7.382;2023-03-20T04:55:02;97734.78;;;8.38;100.00
21817;BME280;13247;47.504;7.382;2023-03-20T04:57:47;97727.81;;;8.37;100.00
21817;BME280;13247;47.504;7.382;2023-03-20T05:00:33;97736.69;;;8.27;100.00
21817;BME280;13247;47.504;7.382;2023-03-20T05:03:17;97732.34;;;8.28;100.00
21817;BME280;13247;47.504;7.382;2023-03-20T05:06:02;97724.19;;;8.46;100.00
21817;BME280;13247;47.504;7.382;2023-03-20T05:08:47;97724.66;;;8.69;100.00
21817;BME280;13247;47.504;7.382;2023-03-20T05:11:31;97718.63;;;8.64;100.00
21817;BME280;13247;47.504;7.382;2023-03-20T05:14:16;97708.47;;;8.47;100.00
21817;BME280;13247;47.504;7.382;2023-03-20T05:17:01;97711.53;;;8.72;100.00
21817;BME280;13247;47.504;7.382;2023-03-20T05:19:45;97717.56;;;8.76;100.00
21817;BME280;13247;47.504;7.382;2023-03-20T05:22:30;97717.16;;;8.49;100.00
21817;BME280;13247;47.504;7.382;2023-03-20T05:25:15;97729.16;;;8.61;100.00
21817;BME280;13247;47.504;7.382;2023-03-20T05:28:00;97728.97;;;8.72;100.00
21817;BME280;13247;47.504;7.382;2023-03-20T05:30:44;97728.44;;;8.53;100.00
21817;BME280;13247;47.504;7.382;2023-03-20T05:33:29;97732.00;;;8.47;100.00
21817;BME280;13247;47.504;7.382;2023-03-20T05:36:14;97725.06;;;8.46;100.00
21817;BME280;13247;47.504;7.382;2023-03-20T05:38:59;97746.22;;;8.31;100.00
21817;BME280;13247;47.504;7.382;2023-03-20T05:41:44;97742.69;;;8.32;100.00
21817;BME280;13247;47.504;7.382;2023-03-20T05:44:29;97757.91;;;8.06;100.00
21817;BME280;13247;47.504;7.382;2023-03-20T05:47:14;97754.97;;;8.29;100.00
21817;BME280;13247;47.504;7.382;2023-03-20T05:49:58;97749.41;;;8.48;100.00
21817;BME280;13247;47.504;7.382;2023-03-20T05:52:49;97744.34;;;8.39;100.00
21817;BME280;13247;47.504;7.382;2023-03-20T05:55:34;97751.22;;;8.43;100.00
21817;BME280;13247;47.504;7.382;2023-03-20T05:58:18;97759.78;;;8.54;100.00
21817;BME280;13247;47.504;7.382;2023-03-20T06:01:03;97762.13;;;8.68;100.00
21817;BME280;13247;47.504;7.382;2023-03-20T06:03:48;97755.22;;;8.64;100.00
21817;BME280;13247;47.504;7.382;2023-03-20T06:06:33;97754.25;;;8.71;100.00
21817;BME280;13247;47.504;7.382;2023-03-20T06:09:21;97748.94;;;8.76;100.00
21817;BME280;13247;47.504;7.382;2023-03-20T06:12:06;97740.94;;;8.83;100.00
21817;BME280;13247;47.504;7.382;2023-03-20T06:14:50;97742.91;;;8.72;100.00
21817;BME280;13247;47.504;7.382;2023-03-20T06:17:35;97750.75;;;8.70;100.00
21817;BME280;13247;47.504;7.382;2023-03-20T06:20:19;97738.78;;;9.08;100.00
21817;BME280;13247;47.504;7.382;2023-03-20T06:23:04;97732.09;;;9.36;100.00
21817;BME280;13247;47.504;7.382;2023-03-20T06:25:49;97738.34;;;9.29;100.00
21817;BME280;13247;47.504;7.382;2023-03-20T06:28:34;97744.00;;;9.06;100.00
21817;BME280;13247;47.504;7.382;2023-03-20T06:31:18;97746.22;;;9.27;100.00
21817;BME280;13247;47.504;7.382;2023-03-20T06:34:03;97742.63;;;9.33;100.00
21817;BME280;13247;47.504;7.382;2023-03-20T06:36:48;97747.66;;;9.42;100.00
21817;BME280;13247;47.504;7.382;2023-03-20T06:39:33;97747.66;;;9.43;100.00
21817;BME280;13247;47.504;7.382;2023-03-20T06:42:18;97750.09;;;9.51;100.00
21817;BME280;13247;47.504;7.382;2023-03-20T06:45:02;97751.06;;;9.47;100.00
21817;BME280;13247;47.504;7.382;2023-03-20T06:47:48;97751.19;;;9.41;100.00
21817;BME280;13247;47.504;7.382;2023-03-20T06:50:32;97755.84;;;9.27;100.00
21817;BME280;13247;47.504;7.382;2023-03-20T06:53:17;97753.00;;;8.92;100.00
21817;BME280;13247;47.504;7.382;2023-03-20T06:56:02;97761.03;;;8.83;100.00
21817;BME280;13247;47.504;7.382;2023-03-20T06:58:47;97762.56;;;8.94;100.00
21817;BME280;13247;47.504;7.382;2023-03-20T07:01:31;97772.81;;;9.05;100.00
21817;BME280;13247;47.504;7.382;2023-03-20T07:04:16;97770.13;;;9.09;100.00
21817;BME280;13247;47.504;7.382;2023-03-20T07:07:00;97771.72;;;9.18;100.00
21817;BME280;13247;47.504;7.382;2023-03-20T07:09:47;97775.94;;;9.25;100.00
21817;BME280;13247;47.504;7.382;2023-03-20T07:12:32;97778.06;;;9.05;100.00
21817;BME280;13247;47.504;7.382;2023-03-20T07:15:17;97781.47;;;9.10;100.00
21817;BME280;13247;47.504;7.382;2023-03-20T07:18:02;97783.41;;;8.99;100.00
21817;BME280;13247;47.504;7.382;2023-03-20T07:20:48;97783.19;;;9.09;100.00
21817;BME280;13247;47.504;7.382;2023-03-20T07:23:34;97789.38;;;9.05;100.00
21817;BME280;13247;47.504;7.382;2023-03-20T07:26:19;97793.44;;;9.21;100.00
21817;BME280;13247;47.504;7.382;2023-03-20T07:29:04;97786.97;;;9.40;100.00
21817;BME280;13247;47.504;7.382;2023-03-20T07:31:50;97788.50;;;9.50;100.00
21817;BME280;13247;47.504;7.382;2023-03-20T07:34:35;97792.25;;;9.80;100.00
21817;BME280;13247;47.504;7.382;2023-03-20T07:37:20;97803.41;;;9.90;100.00
21817;BME280;13247;47.504;7.382;2023-03-20T07:40:05;97801.00;;;9.79;100.00
21817;BME280;13247;47.504;7.382;2023-03-20T07:42:50;97814.03;;;9.82;100.00
21817;BME280;13247;47.504;7.382;2023-03-20T07:45:35;97816.25;;;9.61;100.00
21817;BME280;13247;47.504;7.382;2023-03-20T07:48:20;97817.47;;;9.84;100.00
21817;BME280;13247;47.504;7.382;2023-03-20T07:51:06;97817.97;;;10.03;100.00
21817;BME280;13247;47.504;7.382;2023-03-20T07:53:51;97823.50;;;9.89;100.00
21817;BME280;13247;47.504;7.382;2023-03-20T07:56:36;97822.00;;;10.19;100.00
21817;BME280;13247;47.504;7.382;2023-03-20T07:59:21;97824.53;;;10.23;100.00
21817;BME280;13247;47.504;7.382;2023-03-20T08:02:06;97817.94;;;10.04;100.00
21817;BME280;13247;47.504;7.382;2023-03-20T08:04:50;97811.03;;;10.00;100.00
21817;BME280;13247;47.504;7.382;2023-03-20T08:07:35;97812.59;;;10.07;100.00
21817;BME280;13247;47.504;7.382;2023-03-20T08:10:19;97814.16;;;10.19;100.00
21817;BME280;13247;47.504;7.382;2023-03-20T08:13:04;97809.34;;;10.38;100.00
21817;BME280;13247;47.504;7.382;2023-03-20T08:15:48;97811.09;;;9.99;100.00
21817;BME280;13247;47.504;7.382;2023-03-20T08:18:33;97797.56;;;10.18;100.00
21817;BME280;13247;47.504;7.382;2023-03-20T08:21:18;97804.31;;;10.28;100.00
21817;BME280;13247;47.504;7.382;2023-03-20T08:24:03;97799.91;;;10.31;100.00
21817;BME280;13247;47.504;7.382;2023-03-20T08:26:48;97809.97;;;10.09;100.00
21817;BME280;13247;47.504;7.382;2023-03-20T08:29:33;97803.44;;;10.30;100.00
21817;BME280;13247;47.504;7.382;2023-03-20T08:32:17;97804.94;;;10.40;100.00
21817;BME280;13247;47.504;7.382;2023-03-20T08:35:02;97803.59;;;10.59;100.00
21817;BME280;13247;47.504;7.382;2023-03-20T08:37:47;97797.53;;;10.57;100.00
21817;BME280;13247;47.504;7.382;2023-03-20T08:40:32;97797.22;;;10.69;100.00
21817;BME280;13247;47.504;7.382;2023-03-20T08:43:17;97793.63;;;10.73;100.00
21817;BME280;13247;47.504;7.382;2023-03-20T08:46:02;97800.19;;;10.90;100.00
21817;BME280;13247;47.504;7.382;2023-03-20T08:48:46;97792.31;;;10.90;100.00
21817;BME280;13247;47.504;7.382;2023-03-20T08:51:31;97791.31;;;10.96;100.00
21817;BME280;13247;47.504;7.382;2023-03-20T08:54:16;97789.63;;;10.93;100.00
21817;BME280;13247;47.504;7.382;2023-03-20T08:57:01;97795.59;;;10.98;100.00
21817;BME280;13247;47.504;7.382;2023-03-20T08:59:46;97790.75;;;11.17;100.00
21817;BME280;13247;47.504;7.382;2023-03-20T09:02:31;97785.66;;;11.11;100.00
21817;BME280;13247;47.504;7.382;2023-03-20T09:05:16;97789.06;;;11.15;100.00
21817;BME280;13247;47.504;7.382;2023-03-20T09:08:01;97797.38;;;11.30;100.00
21817;BME280;13247;47.504;7.382;2023-03-20T09:10:47;97791.78;;;11.76;100.00
21817;BME280;13247;47.504;7.382;2023-03-20T09:13:35;97791.19;;;11.96;100.00
21817;BME280;13247;47.504;7.382;2023-03-20T09:16:20;97780.94;;;12.16;100.00
21817;BME280;13247;47.504;7.382;2023-03-20T09:19:05;97783.59;;;11.85;100.00
21817;BME280;13247;47.504;7.382;2023-03-20T09:21:50;97789.91;;;11.79;100.00
21817;BME280;13247;47.504;7.382;2023-03-20T09:24:34;97785.66;;;11.75;100.00
21817;BME280;13247;47.504;7.382;2023-03-20T09:27:20;97785.75;;;11.40;100.00
21817;BME280;13247;47.504;7.382;2023-03-20T09:30:06;97787.66;;;11.67;100.00
21817;BME280;13247;47.504;7.382;2023-03-20T09:32:51;97791.47;;;11.54;100.00
21817;BME280;13247;47.504;7.382;2023-03-20T09:35:36;97799.78;;;11.71;100.00
21817;BME280;13247;47.504;7.382;2023-03-20T09:38:21;97804.13;;;11.40;100.00
21817;BME280;13247;47.504;7.382;2023-03-20T09:41:06;97808.13;;;11.53;100.00
21817;BME280;13247;47.504;7.382;2023-03-20T09:47:19;97809.19;;;11.78;100.00
21817;BME280;13247;47.504;7.382;2023-03-20T09:50:27;97811.94;;;12.05;100.00
21817;BME280;13247;47.504;7.382;2023-03-20T09:53:33;97808.22;;;11.82;100.00
21817;BME280;13247;47.504;7.382;2023-03-20T09:56:24;97800.34;;;11.50;100.00
21817;BME280;13247;47.504;7.382;2023-03-20T09:59:13;97796.16;;;11.75;100.00
21817;BME280;13247;47.504;7.382;2023-03-20T10:02:07;97786.81;;;11.64;100.00
21817;BME280;13247;47.504;7.382;2023-03-20T10:04:56;97801.41;;;11.75;100.00
21817;BME280;13247;47.504;7.382;2023-03-20T10:07:41;97807.69;;;12.01;100.00
21817;BME280;13247;47.504;7.382;2023-03-20T10:13:42;97798.41;;;12.17;100.00
21817;BME280;13247;47.504;7.382;2023-03-20T10:17:24;97809.19;;;12.09;100.00
21817;BME280;13247;47.504;7.382;2023-03-20T10:20:11;97803.50;;;12.23;100.00
21817;BME280;13247;47.504;7.382;2023-03-20T10:23:05;97800.13;;;12.47;100.00
21817;BME280;13247;47.504;7.382;2023-03-20T10:25:55;97808.41;;;12.35;100.00
21817;BME280;13247;47.504;7.382;2023-03-20T10:29:23;97797.88;;;12.63;97.58
21817;BME280;13247;47.504;7.382;2023-03-20T10:32:43;97808.88;;;12.75;93.84
21817;BME280;13247;47.504;7.382;2023-03-20T10:41:31;97825.97;;;12.05;100.00
21817;BME280;13247;47.504;7.382;2023-03-20T10:44:35;97829.44;;;12.06;100.00
21817;BME280;13247;47.504;7.382;2023-03-20T10:47:25;97826.00;;;12.33;100.00
21817;BME280;13247;47.504;7.382;2023-03-20T10:50:22;97821.97;;;12.49;93.53
21817;BME280;13247;47.504;7.382;2023-03-20T10:53:09;97822.44;;;12.34;98.96
21817;BME280;13247;47.504;7.382;2023-03-20T10:56:06;97824.19;;;12.35;96.42
21817;BME280;13247;47.504;7.382;2023-03-20T10:59:00;97824.44;;;12.26;87.40
21817;BME280;13247;47.504;7.382;2023-03-20T11:01:47;97821.56;;;12.06;88.82
21817;BME280;13247;47.504;7.382;2023-03-20T11:04:31;97823.81;;;12.18;96.14
21817;BME280;13247;47.504;7.382;2023-03-20T11:07:23;97809.69;;;12.22;94.99
21817;BME280;13247;47.504;7.382;2023-03-20T11:10:11;97812.22;;;12.25;88.75
21817;BME280;13247;47.504;7.382;2023-03-20T11:12:57;97813.19;;;12.50;88.11
21817;BME280;13247;47.504;7.382;2023-03-20T11:15:41;97809.09;;;12.68;90.35
21817;BME280;13247;47.504;7.382;2023-03-20T11:18:26;97817.34;;;12.57;92.89
21817;BME280;13247;47.504;7.382;2023-03-20T11:21:25;97805.91;;;12.58;90.99
21817;BME280;13247;47.504;7.382;2023-03-20T11:27:33;97800.53;;;12.61;93.73
21817;BME280;13247;47.504;7.382;2023-03-20T11:30:18;97804.50;;;12.48;96.16
21817;BME280;13247;47.504;7.382;2023-03-20T11:33:02;97797.69;;;12.69;83.64
21817;BME280;13247;47.504;7.382;2023-03-20T11:35:52;97795.81;;;12.72;86.21
21817;BME280;13247;47.504;7.382;2023-03-20T11:38:45;97792.94;;;13.06;88.15
21817;BME280;13247;47.504;7.382;2023-03-20T11:41:30;97798.69;;;12.65;88.96
21817;BME280;13247;47.504;7.382;2023-03-20T11:44:33;97796.53;;;12.77;81.95
21817;BME280;13247;47.504;7.382;2023-03-20T11:47:24;97791.19;;;12.79;88.06
21817;BME280;13247;47.504;7.382;2023-03-20T11:50:33;97795.03;;;12.95;86.41
21817;BME280;13247;47.504;7.382;2023-03-20T11:53:29;97787.81;;;13.27;86.00
21817;BME280;13247;47.504;7.382;2023-03-20T11:56:24;97771.84;;;13.32;83.90
21817;BME280;13247;47.504;7.382;2023-03-20T11:59:12;97769.06;;;13.36;75.86
21817;BME280;13247;47.504;7.382;2023-03-20T12:01:58;97768.66;;;13.22;77.32
21817;BME280;13247;47.504;7.382;2023-03-20T12:04:43;97774.56;;;13.29;79.13
21817;BME280;13247;47.504;7.382;2023-03-20T12:07:33;97767.34;;;13.09;80.92
21817;BME280;13247;47.504;7.382;2023-03-20T12:10:20;97763.97;;;13.30;83.13
21817;BME280;13247;47.504;7.382;2023-03-20T12:13:15;97760.00;;;13.44;79.99
21817;BME280;13247;47.504;7.382;2023-03-20T12:16:10;97742.81;;;13.33;83.30
21817;BME280;13247;47.504;7.382;2023-03-20T12:19:00;97733.56;;;13.70;83.81
21817;BME280;13247;47.504;7.382;2023-03-20T12:21:58;97731.78;;;14.15;79.77
21817;BME280;13247;47.504;7.382;2023-03-20T12:25:06;97737.56;;;13.80;68.51
21817;BME280;13247;47.504;7.382;2023-03-20T12:28:11;97740.53;;;13.71;71.35
21817;BME280;13247;47.504;7.382;2023-03-20T12:34:23;97733.53;;;13.23;78.04
21817;BME280;13247;47.504;7.382;2023-03-20T12:37:11;97739.38;;;13.31;76.56
21817;BME280;13247;47.504;7.382;2023-03-20T12:39:59;97727.66;;;13.63;77.53
21817;BME280;13247;47.504;7.382;2023-03-20T12:43:01;97717.84;;;13.67;79.28
21817;BME280;13247;47.504;7.382;2023-03-20T13:04:29;97696.22;;;14.68;71.35
21817;BME280;13247;47.504;7.382;2023-03-20T13:07:19;97697.41;;;13.73;70.32
21817;BME280;13247;47.504;7.382;2023-03-20T13:10:11;97689.16;;;14.26;72.91
21817;BME280;13247;47.504;7.382;2023-03-20T13:13:24;97682.00;;;14.07;80.78
21817;BME280;13247;47.504;7.382;2023-03-20T13:22:31;97675.50;;;14.16;70.89
21817;BME280;13247;47.504;7.382;2023-03-20T13:31:56;97674.38;;;13.78;74.44
21817;BME280;13247;47.504;7.382;2023-03-20T13:38:29;97652.66;;;14.78;69.29
21817;BME280;13247;47.504;7.382;2023-03-20T13:41:13;97656.13;;;15.39;64.06
21817;BME280;13247;47.504;7.382;2023-03-20T13:44:00;97656.56;;;14.50;74.48
21817;BME280;13247;47.504;7.382;2023-03-20T13:46:53;97662.28;;;14.59;69.52
21817;BME280;13247;47.504;7.382;2023-03-20T13:50:02;97651.75;;;14.79;69.92
21817;BME280;13247;47.504;7.382;2023-03-20T13:56:04;97654.28;;;14.82;66.00
21817;BME280;13247;47.504;7.382;2023-03-20T13:58:58;97655.66;;;14.28;72.26
21817;BME280;13247;47.504;7.382;2023-03-20T14:01:58;97649.19;;;14.36;71.32
21817;BME280;13247;47.504;7.382;2023-03-20T14:04:51;97648.75;;;14.47;70.63
21817;BME280;13247;47.504;7.382;2023-03-20T14:07:43;97649.78;;;14.43;69.56
21817;BME280;13247;47.504;7.382;2023-03-20T14:13:17;97645.91;;;14.51;75.14
21817;BME280;13247;47.504;7.382;2023-03-20T14:16:15;97638.16;;;14.88;70.19
21817;BME280;13247;47.504;7.382;2023-03-20T14:19:19;97640.44;;;14.56;69.73
21817;BME280;13247;47.504;7.382;2023-03-20T14:22:05;97629.50;;;14.65;70.02
21817;BME280;13247;47.504;7.382;2023-03-20T14:24:55;97627.13;;;14.99;72.58
21817;BME280;13247;47.504;7.382;2023-03-20T14:39:49;97609.84;;;15.87;66.70
21817;BME280;13247;47.504;7.382;2023-03-20T14:45:42;97613.53;;;16.01;64.27
21817;BME280;13247;47.504;7.382;2023-03-20T14:49:14;97613.19;;;16.09;61.56
21817;BME280;13247;47.504;7.382;2023-03-20T14:51:46;97605.19;;;15.36;65.06
21817;BME280;13247;47.504;7.382;2023-03-20T14:54:31;97618.34;;;14.99;65.46
21817;BME280;13247;47.504;7.382;2023-03-20T14:57:30;97609.22;;;15.44;64.59
21817;BME280;13247;47.504;7.382;2023-03-20T15:00:20;97604.59;;;15.68;63.32
21817;BME280;13247;47.504;7.382;2023-03-20T15:03:10;97604.19;;;14.61;74.38
21817;BME280;13247;47.504;7.382;2023-03-20T15:05:59;97609.38;;;14.42;73.94
21817;BME280;13247;47.504;7.382;2023-03-20T15:08:58;97610.22;;;14.43;70.53
21817;BME280;13247;47.504;7.382;2023-03-20T15:11:46;97611.16;;;15.21;68.72
21817;BME280;13247;47.504;7.382;2023-03-20T15:14:36;97608.41;;;14.65;67.99
21817;BME280;13247;47.504;7.382;2023-03-20T15:17:36;97614.31;;;14.08;73.88
21817;BME280;13247;47.504;7.382;2023-03-20T15:20:26;97612.19;;;14.16;77.91
21817;BME280;13247;47.504;7.382;2023-03-20T15:23:13;97607.25;;;13.87;77.16
21817;BME280;13247;47.504;7.382;2023-03-20T15:25:59;97606.94;;;13.94;77.59
21817;BME280;13247;47.504;7.382;2023-03-20T15:28:45;97609.03;;;14.08;76.65
21817;BME280;13247;47.504;7.382;2023-03-20T15:31:32;97603.56;;;14.54;76.61
21817;BME280;13247;47.504;7.382;2023-03-20T15:34:27;97600.59;;;14.82;78.42
21817;BME280;13247;47.504;7.382;2023-03-20T15:37:20;97597.59;;;15.10;74.85
21817;BME280;13247;47.504;7.382;2023-03-20T15:40:11;97597.00;;;15.03;73.10
21817;BME280;13247;47.504;7.382;2023-03-20T15:43:11;97599.22;;;14.33;76.25
21817;BME280;13247;47.504;7.382;2023-03-20T15:45:57;97601.69;;;14.36;76.46
21817;BME280;13247;47.504;7.382;2023-03-20T15:48:49;97605.16;;;14.58;76.37
21817;BME280;13247;47.504;7.382;2023-03-20T15:51:34;97594.66;;;14.15;74.81
21817;BME280;13247;47.504;7.382;2023-03-20T15:54:20;97595.78;;;14.51;75.77
21817;BME280;13247;47.504;7.382;2023-03-20T15:57:05;97595.72;;;14.73;75.29
21817;BME280;13247;47.504;7.382;2023-03-20T15:59:50;97591.56;;;14.47;70.80
21817;BME280;13247;47.504;7.382;2023-03-20T16:02:35;97589.25;;;14.40;75.27
21817;BME280;13247;47.504;7.382;2023-03-20T16:05:24;97588.28;;;14.42;77.07
21817;BME280;13247;47.504;7.382;2023-03-20T16:08:23;97582.03;;;14.23;77.79
21817;BME280;13247;47.504;7.382;2023-03-20T16:11:16;97580.22;;;14.45;71.86
21817;BME280;13247;47.504;7.382;2023-03-20T16:14:03;97573.25;;;14.83;66.14
21817;BME280;13247;47.504;7.382;2023-03-20T16:16:50;97571.50;;;15.02;69.83
21817;BME280;13247;47.504;7.382;2023-03-20T16:19:36;97570.97;;;15.14;68.56
21817;BME280;13247;47.504;7.382;2023-03-20T16:22:32;97565.63;;;15.16;69.71
21817;BME280;13247;47.504;7.382;2023-03-20T16:25:18;97566.69;;;15.12;72.69
21817;BME280;13247;47.504;7.382;2023-03-20T16:28:04;97575.91;;;15.22;77.40
21817;BME280;13247;47.504;7.382;2023-03-20T16:30:50;97573.59;;;14.55;79.08
21817;BME280;13247;47.504;7.382;2023-03-20T16:33:36;97581.66;;;14.72;73.01
21817;BME280;13247;47.504;7.382;2023-03-20T16:36:31;97576.72;;;14.65;74.80
21817;BME280;13247;47.504;7.382;2023-03-20T16:39:17;97579.50;;;14.42;74.43
21817;BME280;13247;47.504;7.382;2023-03-20T16:42:19;97575.28;;;14.38;75.43
21817;BME280;13247;47.504;7.382;2023-03-20T16:45:19;97568.75;;;14.46;76.66
21817;BME280;13247;47.504;7.382;2023-03-20T16:51:01;97572.81;;;14.33;76.22
21817;BME280;13247;47.504;7.382;2023-03-20T16:53:54;97571.03;;;14.54;75.90